createdAt,value
2022-10-17T00:01:00.931Z,69.64
2022-10-17T00:03:34.749Z,69.52
2022-10-17T00:06:12.140Z,69.95
2022-10-17T00:08:42.056Z,70.31
2022-10-17T00:11:20.986Z,70.40
2022-10-17T00:13:50.489Z,70.13
2022-10-17T00:16:29.654Z,70.47
2022-10-17T00:18:57.594Z,70.94
2022-10-17T00:21:26.242Z,71.42
2022-10-17T00:23:54.639Z,71.75
2022-10-17T00:26:23.126Z,71.29
2022-10-17T00:28:52.622Z,70.98
2022-10-17T00:31:22.273Z,71.20
2022-10-17T00:33:51.627Z,71.09
2022-10-17T00:36:23.380Z,71.23
2022-10-17T00:38:55.949Z,71.21
2022-10-17T00:41:31.976Z,71.19
2022-10-17T00:44:06.634Z,71.37
2022-10-17T00:46:38.984Z,71.95
2022-10-17T00:49:12.522Z,72.41
2022-10-17T00:51:40.356Z,72.60
2022-10-17T00:54:09.655Z,73.05
2022-10-17T00:56:38.440Z,73.84
2022-10-17T00:59:10.951Z,73.73
2022-10-17T01:01:41.653Z,73.38
2022-10-17T01:04:09.951Z,73.48
2022-10-17T01:06:40.496Z,73.96
2022-10-17T01:09:08.507Z,73.73
2022-10-17T01:11:52.394Z,73.54
2022-10-17T01:14:39.034Z,73.28
2022-10-17T01:17:35.360Z,72.40
2022-10-17T01:20:23.254Z,71.97
2022-10-17T01:23:10.794Z,73.57
2022-10-17T01:26:16.186Z,74.12
2022-10-17T01:29:16.474Z,74.18
2022-10-17T01:31:50.644Z,74.07
2022-10-17T01:34:32.582Z,73.75
2022-10-17T01:37:20.402Z,73.56
2022-10-17T01:40:04.950Z,73.85
2022-10-17T01:42:59.502Z,73.99
2022-10-17T01:45:53.995Z,73.99
2022-10-17T01:48:30.920Z,73.77
2022-10-17T01:51:06.041Z,73.53
2022-10-17T01:53:39.620Z,73.53
2022-10-17T01:56:10.199Z,73.73
2022-10-17T01:58:44.265Z,73.53
2022-10-17T02:01:13.394Z,73.62
2022-10-17T02:03:44.704Z,73.77
2022-10-17T02:06:12.536Z,74.01
2022-10-17T02:08:51.159Z,74.32
2022-10-17T02:11:23.964Z,74.04
2022-10-17T02:14:13.786Z,73.71
2022-10-17T02:17:00.102Z,73.95
2022-10-17T02:19:46.727Z,74.28
2022-10-17T02:22:33.427Z,74.23
2022-10-17T02:25:07.857Z,73.56
2022-10-17T02:27:47.949Z,73.17
2022-10-17T02:30:42.247Z,73.52
2022-10-17T02:33:35.546Z,73.81
2022-10-17T02:36:09.811Z,74.05
2022-10-17T02:38:39.481Z,74.25
2022-10-17T02:41:11.852Z,74.42
2022-10-17T02:43:40.596Z,74.00
2022-10-17T02:46:08.528Z,74.32
2022-10-17T02:48:44.247Z,74.46
2022-10-17T02:51:29.874Z,74.86
2022-10-17T02:54:17.516Z,75.18
2022-10-17T02:57:09.782Z,75.77
2022-10-17T02:59:41.542Z,76.02
2022-10-17T03:02:09.458Z,76.05
2022-10-17T03:04:38.406Z,76.25
2022-10-17T03:07:06.327Z,75.91
2022-10-17T03:09:34.242Z,75.31
2022-10-17T03:12:02.103Z,75.29
2022-10-17T03:14:30.451Z,74.87
2022-10-17T03:16:58.289Z,74.84
2022-10-17T03:19:26.936Z,74.43
2022-10-17T03:21:56.527Z,74.30
2022-10-17T03:24:24.477Z,74.56
2022-10-17T03:26:52.381Z,74.40
2022-10-17T03:29:20.363Z,74.48
2022-10-17T03:31:48.359Z,74.44
2022-10-17T03:34:18.789Z,74.64
2022-10-17T03:36:46.998Z,75.03
2022-10-17T03:39:15.007Z,75.24
2022-10-17T03:41:43.084Z,75.75
2022-10-17T03:44:11.005Z,75.70
2022-10-17T03:46:39.235Z,75.55
2022-10-17T03:49:09.504Z,75.06
2022-10-17T03:51:37.696Z,75.23
2022-10-17T03:54:09.335Z,75.61
2022-10-17T03:56:38.030Z,75.44
2022-10-17T03:59:13.517Z,75.14
2022-10-17T04:01:42.192Z,75.17
2022-10-17T04:04:10.815Z,75.50
2022-10-17T04:06:38.797Z,75.59
2022-10-17T04:09:07.527Z,75.51
2022-10-17T04:11:58.153Z,75.33
2022-10-17T04:14:26.074Z,75.23
2022-10-17T04:16:54.165Z,75.28
2022-10-17T04:19:22.289Z,75.17
2022-10-17T04:21:50.632Z,75.37
2022-10-17T04:24:18.686Z,75.29
2022-10-17T04:26:58.540Z,75.03
2022-10-17T04:29:28.941Z,74.81
2022-10-17T04:32:05.542Z,74.68
2022-10-17T04:34:41.745Z,74.88
2022-10-17T04:37:09.867Z,75.45
2022-10-17T04:39:37.873Z,75.23
2022-10-17T04:42:06.328Z,75.50
2022-10-17T04:44:35.677Z,75.25
2022-10-17T04:47:03.800Z,75.13
2022-10-17T04:49:31.852Z,74.78
2022-10-17T04:52:06.955Z,75.30
2022-10-17T04:54:40.769Z,75.54
2022-10-17T04:57:10.590Z,75.99
2022-10-17T04:59:39.884Z,76.01
2022-10-17T05:02:33.948Z,76.26
2022-10-17T05:05:02.927Z,76.26
2022-10-17T05:07:30.895Z,76.40
2022-10-17T05:10:11.436Z,76.31
2022-10-17T05:12:41.007Z,76.53
2022-10-17T05:15:09.595Z,76.88
2022-10-17T05:17:37.611Z,76.58
2022-10-17T05:20:06.902Z,76.08
2022-10-17T05:22:38.246Z,76.10
2022-10-17T05:25:09.580Z,75.91
2022-10-17T05:27:38.265Z,75.90
2022-10-17T05:30:07.520Z,75.32
2022-10-17T05:32:36.518Z,75.77
2022-10-17T05:35:05.054Z,75.67
2022-10-17T05:37:33.182Z,75.97
2022-10-17T05:40:01.785Z,75.84
2022-10-17T05:42:31.166Z,76.11
2022-10-17T05:44:59.628Z,76.38
2022-10-17T05:47:28.013Z,76.15
2022-10-17T05:49:56.061Z,76.20
2022-10-17T05:52:28.690Z,76.32
2022-10-17T05:55:08.415Z,76.26
2022-10-17T05:57:36.471Z,76.48
2022-10-17T06:00:08.724Z,76.45
2022-10-17T06:02:46.060Z,76.42
2022-10-17T06:05:16.032Z,75.77
2022-10-17T06:07:44.785Z,75.27
2022-10-17T06:10:16.389Z,75.24
2022-10-17T06:12:44.499Z,75.42
2022-10-17T06:15:13.286Z,74.90
2022-10-17T06:17:44.192Z,74.92
2022-10-17T06:20:12.293Z,74.50
2022-10-17T06:22:40.187Z,74.05
2022-10-17T06:25:13.802Z,73.86
2022-10-17T06:27:42.489Z,73.59
2022-10-17T06:30:11.630Z,73.27
2022-10-17T06:32:39.600Z,73.41
2022-10-17T06:35:08.003Z,73.57
2022-10-17T06:37:38.103Z,73.87
2022-10-17T06:40:12.213Z,74.14
2022-10-17T06:42:41.161Z,73.88
2022-10-17T06:45:29.347Z,73.64
2022-10-17T06:48:18.949Z,73.73
2022-10-17T06:51:11.401Z,73.60
2022-10-17T06:53:49.754Z,73.30
2022-10-17T06:56:30.748Z,73.35
2022-10-17T06:59:15.790Z,73.16
2022-10-17T07:01:51.384Z,72.95
2022-10-17T07:04:19.758Z,72.69
2022-10-17T07:06:47.703Z,72.34
2022-10-17T07:09:19.025Z,72.24
2022-10-17T07:11:47.133Z,72.05
2022-10-17T07:14:18.400Z,71.76
2022-10-17T07:16:47.405Z,71.59
2022-10-17T07:19:19.259Z,71.10
2022-10-17T07:21:47.278Z,70.69
2022-10-17T07:24:15.111Z,70.57
2022-10-17T07:26:47.147Z,70.00
2022-10-17T07:29:15.722Z,69.78
2022-10-17T07:31:49.010Z,69.34
2022-10-17T07:34:16.871Z,69.19
2022-10-17T07:36:46.187Z,69.11
2022-10-17T07:39:15.581Z,69.13
2022-10-17T07:41:43.479Z,69.25
2022-10-17T07:44:11.698Z,68.53
2022-10-17T07:46:45.948Z,68.34
2022-10-17T07:49:14.149Z,68.22
2022-10-17T07:51:42.454Z,67.85
2022-10-17T07:54:10.740Z,67.60
2022-10-17T07:56:38.666Z,67.01
2022-10-17T07:59:09.186Z,66.56
2022-10-17T08:01:38.000Z,66.38
2022-10-17T08:04:05.811Z,66.12
2022-10-17T08:06:33.824Z,65.77
2022-10-17T08:09:02.200Z,65.43
2022-10-17T08:11:30.084Z,65.24
2022-10-17T08:13:57.964Z,64.46
2022-10-17T08:16:25.881Z,63.28
2022-10-17T08:18:54.091Z,63.38
2022-10-17T08:21:22.447Z,62.45
2022-10-17T08:23:50.369Z,62.28
2022-10-17T08:26:20.119Z,62.77
2022-10-17T08:28:48.701Z,61.79
2022-10-17T08:31:19.765Z,61.21
2022-10-17T08:33:49.445Z,60.69
2022-10-17T08:36:19.006Z,59.06
2022-10-17T08:38:52.415Z,58.61
2022-10-17T08:41:39.505Z,59.17
2022-10-17T08:44:16.174Z,58.36
2022-10-17T08:46:48.166Z,57.42
2022-10-17T08:49:37.862Z,55.70
2022-10-17T08:52:15.346Z,57.53
2022-10-17T08:54:48.677Z,55.67
2022-10-17T08:57:18.185Z,55.38
2022-10-17T08:59:52.106Z,54.90
2022-10-17T09:02:39.107Z,54.28
2022-10-17T09:05:31.247Z,52.52
2022-10-17T09:08:03.307Z,52.46
2022-10-17T09:10:31.092Z,52.61
2022-10-17T09:16:18.963Z,52.88
2022-10-17T09:19:01.208Z,50.59
2022-10-17T09:21:44.868Z,49.98
2022-10-17T09:24:33.881Z,49.85
2022-10-17T09:27:02.928Z,52.19
2022-10-17T09:29:36.932Z,51.98
2022-10-17T09:32:20.969Z,49.91
2022-10-17T09:34:49.003Z,48.55
2022-10-17T09:37:17.870Z,48.92
2022-10-17T09:39:46.067Z,47.72
2022-10-17T09:42:19.433Z,46.86
2022-10-17T09:44:52.997Z,46.61
2022-10-17T09:47:45.778Z,46.38
2022-10-17T09:50:25.428Z,45.66
2022-10-17T09:52:54.378Z,46.37
2022-10-17T09:55:45.513Z,45.11
2022-10-17T09:58:13.429Z,43.08
2022-10-17T10:00:43.670Z,42.22
2022-10-17T10:03:17.469Z,41.43
2022-10-17T10:06:05.126Z,40.50
2022-10-17T10:08:37.285Z,39.99
2022-10-17T10:11:11.830Z,39.28
2022-10-17T10:13:43.228Z,38.50
2022-10-17T10:16:32.533Z,38.59
2022-10-17T10:19:00.521Z,38.15
2022-10-17T10:21:29.334Z,37.18
2022-10-17T10:24:13.338Z,36.43
2022-10-17T10:26:45.143Z,36.18
2022-10-17T10:29:36.760Z,35.41
2022-10-17T10:32:09.038Z,34.64
2022-10-17T10:34:39.519Z,34.63
2022-10-17T10:37:18.452Z,34.18
2022-10-17T10:39:50.696Z,33.64
2022-10-17T10:42:31.647Z,33.66
2022-10-17T10:45:43.346Z,33.65
2022-10-17T10:48:25.475Z,32.19
2022-10-17T10:50:58.089Z,31.80
2022-10-17T10:53:44.708Z,31.45
2022-10-17T10:56:19.946Z,30.88
2022-10-17T10:59:00.605Z,30.65
2022-10-17T11:01:45.952Z,30.73
2022-10-17T11:04:19.849Z,31.19
2022-10-17T11:06:50.754Z,29.60
2022-10-17T11:09:55.920Z,29.09
2022-10-17T11:12:35.850Z,28.38
2022-10-17T11:15:09.690Z,27.51
2022-10-17T11:17:44.027Z,27.12
2022-10-17T11:20:23.150Z,27.11
2022-10-17T11:22:58.863Z,26.46
2022-10-17T11:25:41.091Z,26.94
2022-10-17T11:28:15.683Z,26.08
2022-10-17T11:31:03.315Z,25.57
2022-10-17T11:33:36.784Z,24.99
2022-10-17T11:36:08.272Z,25.32
2022-10-17T11:38:47.644Z,23.88
2022-10-17T11:41:34.680Z,23.69
2022-10-17T11:44:23.421Z,24.81
2022-10-17T11:47:11.507Z,23.52
2022-10-17T11:49:47.281Z,23.25
2022-10-17T11:53:02.643Z,22.82
2022-10-17T11:55:32.301Z,22.72
2022-10-17T11:58:12.425Z,22.58
2022-10-17T12:00:48.994Z,22.03
2022-10-17T12:03:23.532Z,22.64
2022-10-17T12:06:04.853Z,22.33
2022-10-17T12:08:47.291Z,21.18
2022-10-17T12:11:23.481Z,21.21
2022-10-17T12:13:54.598Z,21.75
2022-10-17T12:16:23.352Z,22.03
2022-10-17T12:19:19.616Z,22.08
2022-10-17T12:21:57.968Z,22.10
2022-10-17T12:24:40.050Z,22.12
2022-10-17T12:27:38.560Z,21.80
2022-10-17T12:30:06.958Z,21.99
2022-10-17T12:33:03.791Z,21.75
2022-10-17T12:35:25.733Z,21.09
2022-10-17T12:37:57.317Z,20.93
2022-10-17T12:40:35.608Z,21.29
2022-10-17T12:43:15.493Z,22.15
2022-10-17T12:45:51.963Z,22.12
2022-10-17T12:49:02.266Z,22.27
2022-10-17T12:51:35.698Z,22.65
2022-10-17T12:54:16.116Z,22.46
2022-10-17T12:56:49.166Z,22.54
2022-10-17T12:59:21.890Z,21.47
2022-10-17T13:01:53.613Z,21.26
2022-10-17T13:04:22.077Z,21.09
2022-10-17T13:06:54.469Z,20.37
2022-10-17T13:09:52.209Z,19.64
2022-10-17T13:12:27.728Z,19.91
2022-10-17T13:14:56.325Z,19.41
2022-10-17T13:17:31.223Z,18.58
2022-10-17T13:19:59.299Z,19.44
2022-10-17T13:22:33.005Z,19.53
2022-10-17T13:25:16.022Z,18.98
2022-10-17T13:27:44.257Z,18.38
2022-10-17T13:30:32.411Z,17.85
2022-10-17T13:33:02.318Z,18.42
2022-10-17T13:35:59.034Z,18.23
2022-10-17T13:38:28.494Z,18.25
2022-10-17T13:41:05.930Z,17.65
2022-10-17T13:43:39.083Z,17.77
2022-10-17T13:46:32.546Z,18.07
2022-10-17T13:48:59.370Z,17.86
2022-10-17T13:51:27.780Z,18.18
2022-10-17T13:53:56.189Z,18.34
2022-10-17T13:56:28.784Z,18.19
2022-10-17T13:59:01.453Z,18.43
2022-10-17T14:01:30.259Z,18.09
2022-10-17T14:04:08.861Z,18.95
2022-10-17T14:06:46.229Z,20.09
2022-10-17T14:09:29.435Z,21.17
2022-10-17T14:12:16.619Z,22.71
2022-10-17T14:15:11.497Z,24.04
2022-10-17T14:17:39.564Z,24.93
2022-10-17T14:20:48.241Z,26.01
2022-10-17T14:23:21.620Z,26.66
2022-10-17T14:25:46.963Z,27.56
2022-10-17T14:28:16.989Z,28.94
2022-10-17T14:30:56.674Z,30.75
2022-10-17T14:33:30.336Z,32.39
2022-10-17T14:36:00.805Z,33.50
2022-10-17T14:38:30.424Z,34.80
2022-10-17T14:41:42.573Z,34.60
2022-10-17T14:44:30.955Z,35.85
2022-10-17T14:47:30.291Z,37.97
2022-10-17T14:50:04.148Z,39.26
2022-10-17T14:52:33.441Z,40.08
2022-10-17T14:55:22.179Z,40.92
2022-10-17T14:57:50.284Z,41.97
2022-10-17T15:00:20.394Z,42.09
2022-10-17T15:02:49.821Z,42.42
2022-10-17T15:05:19.491Z,43.03
2022-10-17T15:07:47.332Z,43.56
2022-10-17T15:10:24.622Z,44.10
2022-10-17T15:12:59.229Z,43.54
2022-10-17T15:15:39.212Z,42.94
2022-10-17T15:18:08.100Z,43.76
2022-10-17T15:20:36.033Z,44.24
2022-10-17T15:23:04.599Z,44.82
2022-10-17T15:25:32.682Z,45.60
2022-10-17T15:28:00.508Z,45.77
2022-10-17T15:30:32.527Z,45.59
2022-10-17T15:33:00.760Z,45.29
2022-10-17T15:35:29.090Z,44.95
2022-10-17T15:37:56.977Z,45.53
2022-10-17T15:40:30.087Z,46.94
2022-10-17T15:42:58.289Z,48.46
2022-10-17T15:45:26.214Z,49.44
2022-10-17T15:47:57.040Z,49.60
2022-10-17T15:50:24.945Z,49.99
2022-10-17T15:52:52.838Z,49.84
2022-10-17T15:55:20.804Z,49.94
2022-10-17T15:57:49.204Z,50.58
2022-10-17T16:00:21.004Z,50.35
2022-10-17T16:02:49.827Z,51.22
2022-10-17T16:05:25.653Z,52.12
2022-10-17T16:07:54.172Z,53.03
2022-10-17T16:10:23.188Z,53.42
2022-10-17T16:12:51.243Z,53.61
2022-10-17T16:15:25.011Z,54.31
2022-10-17T16:17:54.484Z,54.41
2022-10-17T16:20:23.837Z,55.00
2022-10-17T16:22:59.683Z,55.18
2022-10-17T16:25:29.354Z,55.59
2022-10-17T16:27:59.792Z,55.64
2022-10-17T16:30:29.671Z,55.57
2022-10-17T16:32:57.693Z,55.82
2022-10-17T16:35:31.931Z,55.68
2022-10-17T16:38:03.225Z,56.33
2022-10-17T16:40:31.998Z,56.42
2022-10-17T16:43:00.140Z,56.97
2022-10-17T16:45:28.088Z,57.45
2022-10-17T16:47:56.121Z,57.67
2022-10-17T16:50:24.591Z,57.76
2022-10-17T16:52:52.567Z,57.62
2022-10-17T16:55:20.626Z,58.83
2022-10-17T16:57:49.297Z,59.12
2022-10-17T17:00:18.068Z,59.37
2022-10-17T17:02:48.931Z,59.44
2022-10-17T17:05:16.796Z,59.77
2022-10-17T17:07:47.424Z,60.05
2022-10-17T17:10:16.367Z,60.42
2022-10-17T17:12:44.344Z,60.40
2022-10-17T17:15:12.207Z,60.97
2022-10-17T17:17:55.952Z,61.39
2022-10-17T17:20:24.272Z,61.98
2022-10-17T17:22:52.428Z,62.33
2022-10-17T17:25:21.289Z,62.68
2022-10-17T17:27:49.192Z,62.80
2022-10-17T17:30:17.221Z,62.83
2022-10-17T17:32:45.150Z,62.36
2022-10-17T17:35:13.031Z,61.73
2022-10-17T17:37:40.920Z,62.49
2022-10-17T17:40:09.280Z,62.64
2022-10-17T17:42:37.176Z,62.34
2022-10-17T17:45:05.683Z,62.17
2022-10-17T17:47:33.663Z,62.59
2022-10-17T17:50:03.334Z,62.77
2022-10-17T17:52:31.507Z,62.60
2022-10-17T17:54:59.596Z,62.85
2022-10-17T17:57:29.477Z,63.38
2022-10-17T17:59:57.455Z,63.63
2022-10-17T18:02:25.497Z,63.76
2022-10-17T18:04:53.418Z,64.01
2022-10-17T18:07:21.377Z,64.57
2022-10-17T18:09:50.981Z,64.94
2022-10-17T18:12:18.923Z,65.00
2022-10-17T18:14:47.736Z,65.04
2022-10-17T18:17:15.676Z,64.63
2022-10-17T18:19:43.596Z,64.35
2022-10-17T18:22:11.583Z,64.65
2022-10-17T18:24:39.408Z,65.16
2022-10-17T18:27:07.475Z,65.00
2022-10-17T18:29:35.488Z,65.12
2022-10-17T18:32:03.376Z,65.33
2022-10-17T18:34:31.205Z,65.24
2022-10-17T18:36:59.996Z,64.94
2022-10-17T18:39:27.999Z,65.56
2022-10-17T18:41:55.897Z,65.69
2022-10-17T18:44:23.904Z,64.47
2022-10-17T18:46:51.780Z,63.07
2022-10-17T18:49:20.708Z,64.21
2022-10-17T18:51:48.958Z,65.61
2022-10-17T18:54:21.608Z,65.80
2022-10-17T18:56:52.193Z,66.65
2022-10-17T18:59:20.799Z,66.02
2022-10-17T19:01:49.040Z,66.74
2022-10-17T19:04:16.983Z,66.85
2022-10-17T19:06:44.906Z,66.51
2022-10-17T19:09:14.167Z,66.78
2022-10-17T19:11:42.912Z,65.91
2022-10-17T19:14:13.492Z,65.54
2022-10-17T19:16:47.733Z,65.91
2022-10-17T19:19:21.853Z,65.57
2022-10-17T19:21:50.235Z,66.42
2022-10-17T19:24:21.828Z,66.65
2022-10-17T19:26:53.436Z,66.89
2022-10-17T19:29:24.470Z,66.65
2022-10-17T19:31:52.562Z,66.61
2022-10-17T19:34:20.587Z,66.58
2022-10-17T19:36:48.856Z,67.03
2022-10-17T19:39:22.803Z,67.58
2022-10-17T19:41:50.918Z,67.54
2022-10-17T19:44:18.934Z,67.61
2022-10-17T19:46:49.502Z,67.46
2022-10-17T19:49:17.710Z,67.54
2022-10-17T19:51:45.899Z,67.45
2022-10-17T19:54:15.228Z,66.41
2022-10-17T19:56:43.581Z,64.72
2022-10-17T19:59:13.896Z,65.81
2022-10-17T20:01:42.665Z,67.15
2022-10-17T20:04:12.292Z,69.17
2022-10-17T20:06:41.319Z,69.83
2022-10-17T20:09:14.051Z,69.44
2022-10-17T20:11:44.927Z,68.44
2022-10-17T20:14:12.851Z,70.01
2022-10-17T20:16:40.723Z,70.50
2022-10-17T20:19:11.189Z,69.81
2022-10-17T20:21:39.950Z,69.65
2022-10-17T20:24:11.598Z,69.17
2022-10-17T20:26:40.548Z,68.73
2022-10-17T20:29:13.211Z,68.42
2022-10-17T20:31:43.585Z,67.88
2022-10-17T20:34:13.947Z,68.05
2022-10-17T20:36:42.123Z,68.07
2022-10-17T20:39:12.279Z,67.75
2022-10-17T20:41:40.668Z,67.85
2022-10-17T20:44:08.828Z,67.79
2022-10-17T20:46:39.768Z,67.16
2022-10-17T20:49:18.356Z,67.56
2022-10-17T20:51:46.647Z,68.14
2022-10-17T20:54:14.649Z,68.58
2022-10-17T20:56:42.567Z,68.95
2022-10-17T20:59:16.589Z,69.11
2022-10-17T21:01:45.462Z,69.25
2022-10-17T21:07:02.317Z,68.79
2022-10-17T21:09:31.647Z,68.36
2022-10-17T21:14:36.424Z,68.75
2022-10-17T21:17:05.407Z,68.88
2022-10-17T21:19:34.036Z,69.35
2022-10-17T21:22:01.870Z,69.33
2022-10-17T21:24:30.993Z,68.91
2022-10-17T21:26:59.014Z,69.06
2022-10-17T21:29:26.957Z,69.41
2022-10-17T21:31:54.848Z,69.43
2022-10-17T21:34:26.506Z,69.52
2022-10-17T21:36:54.439Z,69.45
2022-10-17T21:39:24.829Z,69.88
2022-10-17T21:41:53.767Z,69.76
2022-10-17T21:44:25.247Z,70.10
2022-10-17T21:46:54.296Z,69.35
2022-10-17T21:49:24.272Z,69.11
2022-10-17T21:51:52.669Z,69.02
2022-10-17T21:54:23.045Z,68.75
2022-10-17T21:56:51.676Z,68.84
2022-10-17T21:59:19.511Z,68.86
2022-10-17T22:01:47.435Z,68.77
2022-10-17T22:04:17.604Z,69.02
2022-10-17T22:06:47.493Z,69.71
2022-10-17T22:09:18.577Z,70.29
2022-10-17T22:11:49.474Z,70.33
2022-10-17T22:14:19.502Z,70.27
2022-10-17T22:16:49.002Z,70.53
2022-10-17T22:19:20.275Z,70.62
2022-10-17T22:21:48.825Z,70.46
2022-10-17T22:24:18.561Z,69.43
2022-10-17T22:26:46.764Z,69.28
2022-10-17T22:29:14.736Z,69.54
2022-10-17T22:31:42.868Z,69.73
2022-10-17T22:34:13.513Z,69.70
2022-10-17T22:36:42.464Z,69.57
2022-10-17T22:39:11.123Z,69.16
2022-10-17T22:41:39.110Z,68.78
2022-10-17T22:44:07.189Z,68.63
2022-10-17T22:46:35.996Z,68.80
2022-10-17T22:49:04.304Z,68.94
2022-10-17T22:51:32.181Z,68.91
2022-10-17T22:54:00.042Z,67.99
2022-10-17T22:56:28.131Z,68.07
2022-10-17T22:58:56.010Z,68.28
2022-10-17T23:01:25.836Z,68.67
2022-10-17T23:03:54.092Z,69.14
2022-10-17T23:06:23.871Z,69.03
2022-10-17T23:08:52.360Z,69.71
2022-10-17T23:11:21.036Z,70.47
2022-10-17T23:13:49.142Z,71.13
2022-10-17T23:16:17.299Z,71.16
2022-10-17T23:18:45.640Z,71.34
2022-10-17T23:21:13.694Z,71.79
2022-10-17T23:23:41.796Z,71.95
2022-10-17T23:26:12.457Z,71.73
2022-10-17T23:28:41.221Z,71.86
2022-10-17T23:31:18.376Z,72.02
2022-10-17T23:33:47.622Z,71.77
2022-10-17T23:36:18.126Z,71.23
2022-10-17T23:38:47.670Z,70.45
2022-10-17T23:41:16.635Z,70.13
2022-10-17T23:43:44.873Z,70.51
2022-10-17T23:46:13.108Z,70.97
2022-10-17T23:48:41.241Z,71.45
2022-10-17T23:51:10.428Z,71.79
2022-10-17T23:53:39.201Z,71.89
2022-10-17T23:56:09.090Z,72.53
2022-10-17T23:58:38.105Z,73.05
